Time;durP1;ratioP1;P1;durP2;ratioP2;P2;SDS_P1;SDS_P2;PMS_P1;PMS_P2;Temp;Humidity;BMP_temperature;BMP_pressure;BME280_temperature;BME280_humidity;BME280_pressure;Samples;Min_cycle;Max_cycle;Signal;HPM_P1;HPM_P2
2023/04/07 00:02:06;;;;;;;23.10;14.10;;;;;;;3.87;61.70;100536.81;125789;1305;638332;-68
2023/04/07 00:06:00;;;;;;;20.60;13.30;;;;;;;3.82;61.91;100532.14;127179;1290;126676;-67
2023/04/07 00:10:04;;;;;;;22.70;15.10;;;;;;;3.78;62.38;100526.91;126188;1300;115371;-69
2023/04/07 00:14:05;;;;;;;19.90;14.10;;;;;;;3.75;62.69;100530.48;120901;1311;5438288;-68
2023/04/07 00:22:40;;;;;;;28.70;16.80;;;;;;;3.70;63.25;100521.77;125717;1305;638444;-68
2023/04/07 00:26:34;;;;;;;;;;;;;;;;;;;;;
2023/04/07 00:30:47;;;;;;;20.70;14.80;;;;;;;3.63;64.02;100513.56;125991;1299;115497;-68
2023/04/07 00:34:48;;;;;;;25.10;15.10;;;;;;;3.59;64.15;100510.63;121784;1299;5423665;-66
2023/04/07 00:43:24;;;;;;;27.90;16.70;;;;;;;3.55;64.71;100497.29;125761;1313;638587;-67
2023/04/07 00:47:26;;;;;;;26.00;16.60;;;;;;;3.52;64.93;100501.76;127197;1288;128873;-69
2023/04/07 00:51:27;;;;;;;25.30;16.60;;;;;;;3.49;65.29;100490.14;126725;1299;114915;-68
2023/04/07 00:55:28;;;;;;;22.70;16.90;;;;;;;3.46;65.38;100487.90;122170;1301;5446925;-68
2023/04/07 00:59:22;;;;;;;;;;;;;;;;;;;;;
2023/04/07 01:03:42;;;;;;;28.80;17.40;;;;;;;3.51;65.91;100480.05;125910;1296;637896;-67
2023/04/07 01:07:01;;;;;;;24.20;17.60;;;;;;;3.47;66.00;100481.19;128230;1281;128617;-68
2023/04/07 01:10:32;;;;;;;25.40;18.20;;;;;;;3.44;66.25;100481.58;128255;1281;116385;-69
2023/04/07 01:14:39;;;;;;;22.50;16.50;;;;;;;3.39;66.37;100480.08;128143;1281;114956;-69
2023/04/07 01:18:09;;;;;;;28.00;18.90;;;;;;;3.33;66.48;100479.64;124131;1279;114821;-67
2023/04/07 01:21:50;;;;;;;27.40;18.50;;;;;;;3.26;66.78;100478.34;127624;1290;117060;-68
2023/04/07 01:25:34;;;;;;;24.60;18.50;;;;;;;3.23;66.97;100473.27;127811;1294;114930;-68
2023/04/07 01:29:56;;;;;;;21.90;14.20;;;;;;;3.21;67.31;100471.38;127919;1284;128910;-69
2023/04/07 01:33:51;;;;;;;;;;;;;;;;;;;;;
2023/04/07 01:37:49;;;;;;;;;;;;;;;;;;;;;
2023/04/07 01:41:34;;;;;;;28.60;19.20;;;;;;;3.05;68.04;100468.64;126199;1305;114990;-67
2023/04/07 01:45:23;;;;;;;;;;;;;;;;;;;;;
2023/04/07 01:49:09;;;;;;;28.60;19.70;;;;;;;3.04;68.28;100465.29;127096;1289;127613;-69
2023/04/07 01:52:42;;;;;;;25.90;19.00;;;;;;;3.01;68.50;100458.81;126873;1286;115192;-69
2023/04/07 01:56:16;;;;;;;29.20;19.50;;;;;;;2.99;68.70;100457.77;126853;1308;114973;-67
2023/04/07 02:00:10;;;;;;;29.70;21.20;;;;;;;2.99;68.74;100455.65;126519;1291;115003;-67
2023/04/07 02:04:08;;;;;;;30.60;20.50;;;;;;;2.99;68.97;100453.20;126536;1307;114960;-69
2023/04/07 02:08:12;;;;;;;23.30;18.20;;;;;;;2.99;69.06;100450.90;126894;1287;128315;-69
2023/04/07 02:11:56;;;;;;;28.50;19.10;;;;;;;2.97;69.18;100445.30;126288;1305;116416;-68
2023/04/07 02:15:48;;;;;;;26.20;18.90;;;;;;;2.96;69.35;100447.77;125965;1300;114947;-68
2023/04/07 02:19:10;;;;;;;;;;;;;;;;;;;;;
2023/04/07 02:22:35;;;;;;;27.20;20.30;;;;;;;2.92;69.62;100445.35;125170;1310;116210;-69
2023/04/07 02:26:22;;;;;;;29.70;19.00;;;;;;;2.91;69.74;100437.27;125624;1324;127877;-68
2023/04/07 02:29:58;;;;;;;23.20;17.80;;;;;;;2.90;69.70;100434.45;125093;1310;114859;-67
2023/04/07 02:38:36;;;;;;;25.30;17.60;;;;;;;2.89;69.89;100435.73;126226;1294;639924;-67
2023/04/07 02:42:38;;;;;;;27.10;16.70;;;;;;;2.88;69.98;100432.36;128539;1276;128777;-68
2023/04/07 02:50:42;;;;;;;21.00;15.60;;;;;;;2.87;70.14;100429.23;125984;1305;638568;-67
2023/04/07 02:54:16;;;;;;;25.60;17.80;;;;;;;2.82;70.21;100422.41;127603;1284;128034;-69
2023/04/07 02:58:08;;;;;;;24.30;15.80;;;;;;;2.81;70.19;100421.90;127134;1305;116708;-69
2023/04/07 03:01:59;;;;;;;26.00;16.80;;;;;;;2.80;70.45;100417.33;126763;1293;114969;-68
2023/04/07 03:05:32;;;;;;;21.90;15.80;;;;;;;2.80;70.64;100413.27;122758;1302;114950;-68
2023/04/07 03:09:29;;;;;;;22.40;15.80;;;;;;;2.80;70.49;100416.80;126281;1293;114973;-67
2023/04/07 03:12:56;;;;;;;22.30;16.40;;;;;;;2.82;70.73;100416.42;126149;1299;115117;-68
2023/04/07 03:16:41;;;;;;;22.80;16.80;;;;;;;2.84;70.78;100423.08;125273;1304;129996;-68
2023/04/07 03:20:40;;;;;;;23.00;16.80;;;;;;;2.84;70.73;100427.67;124806;1308;116644;-68
2023/04/07 03:29:14;;;;;;;24.00;18.20;;;;;;;2.84;70.77;100426.61;125753;1305;637125;-68
2023/04/07 03:37:49;;;;;;;28.90;19.30;;;;;;;2.84;71.18;100422.73;126007;1305;637808;-67
2023/04/07 03:50:27;;;;;;;30.90;19.80;;;;;;;2.83;71.45;100419.41;125820;1299;638723;-67
2023/04/07 03:58:31;;;;;;;28.20;20.00;;;;;;;2.72;71.61;100414.98;125580;1300;116114;-68
2023/04/07 04:02:32;;;;;;;29.10;20.00;;;;;;;2.69;71.77;100413.43;120959;1309;5478297;-67
2023/04/07 04:06:34;;;;;;;27.70;18.70;;;;;;;2.67;71.97;100411.88;124131;1313;115810;-68
2023/04/07 04:10:33;;;;;;;;;;;;;;;;;;;;;
2023/04/07 04:15:27;;;;;;;26.50;20.80;;;;;;;2.65;71.80;100416.16;125878;1300;651423;-67
2023/04/07 04:28:04;;;;;;;25.40;18.30;;;;;;;2.66;72.41;100415.96;125644;1304;637674;-67
2023/04/07 04:32:07;;;;;;;29.30;19.20;;;;;;;2.63;72.15;100419.91;127524;1287;127889;-68
2023/04/07 04:36:11;;;;;;;27.00;18.30;;;;;;;2.60;72.05;100422.38;126628;1296;114887;-66
2023/04/07 04:44:14;;;;;;;24.30;17.30;;;;;;;2.56;72.24;100423.67;125202;1319;114895;-67
2023/04/07 04:56:52;;;;;;;25.30;16.50;;;;;;;2.60;72.38;100421.86;127940;1292;129095;-66
2023/04/07 05:01:19;;;;;;;24.40;17.80;;;;;;;2.63;72.58;100420.23;127296;1304;115286;-69
2023/04/07 05:04:55;;;;;;;27.90;19.30;;;;;;;2.66;72.54;100421.96;122087;1302;5438312;-67
2023/04/07 05:08:57;;;;;;;25.40;17.90;;;;;;;2.70;72.70;100428.06;125201;1311;114931;-65
2023/04/07 05:21:35;;;;;;;28.30;18.00;;;;;;;2.72;72.77;100432.45;128837;1277;129139;-68
2023/04/07 05:25:38;;;;;;;26.80;18.60;;;;;;;2.71;72.72;100432.11;128166;1278;115535;-68
2023/04/07 05:29:39;;;;;;;28.60;19.30;;;;;;;2.71;72.89;100434.22;122626;1293;5426442;-68
2023/04/07 05:33:41;;;;;;;31.20;20.60;;;;;;;2.69;72.79;100430.54;125503;1320;114979;-67
2023/04/07 05:42:16;;;;;;;26.90;18.30;;;;;;;2.76;72.98;100421.27;125387;1297;639335;-69
2023/04/07 05:46:19;;;;;;;27.30;17.90;;;;;;;2.77;73.09;100420.71;127910;1302;128650;-69
2023/04/07 05:50:21;;;;;;;30.50;19.90;;;;;;;2.82;73.31;100421.35;127081;1292;115495;-69
2023/04/07 05:58:27;;;;;;;26.20;17.80;;;;;;;2.97;73.65;100424.48;125127;1322;115484;-65
2023/04/07 06:06:45;;;;;;;26.00;17.50;;;;;;;3.10;73.40;100425.48;126292;1293;638570;-68
2023/04/07 06:10:48;;;;;;;25.10;17.50;;;;;;;3.14;73.50;100426.12;128967;1270;128842;-67
2023/04/07 06:14:48;;;;;;;;;;;;;;;;;;;;;
2023/04/07 06:18:52;;;;;;;24.90;17.40;;;;;;;3.21;73.44;100432.02;124302;1277;5453730;-68
2023/04/07 06:22:53;;;;;;;26.80;17.60;;;;;;;3.25;73.18;100425.05;127546;1305;114964;-65
2023/04/07 06:26:55;;;;;;;25.70;16.80;;;;;;;3.31;73.44;100421.42;126642;1311;114757;-67
2023/04/07 06:35:27;;;;;;;;;;;;;;;;;;;;;
2023/04/07 06:39:29;;;;;;;;;;;;;;;;;;;;;
2023/04/07 06:43:32;;;;;;;28.90;18.20;;;;;;;3.45;73.16;100423.12;126316;1296;115272;-68
2023/04/07 06:47:34;;;;;;;25.60;17.30;;;;;;;3.48;73.14;100418.48;122213;1302;5500116;-67
2023/04/07 06:56:08;;;;;;;22.40;16.70;;;;;;;3.60;73.33;100415.76;125694;1311;638672;-66
2023/04/07 07:00:10;;;;;;;27.60;16.70;;;;;;;3.67;73.42;100419.55;127700;1285;128728;-66
2023/04/07 07:04:13;;;;;;;27.10;18.70;;;;;;;3.72;73.47;100410.44;128149;1300;115354;-66
2023/04/07 07:08:17;;;;;;;24.40;17.90;;;;;;;3.77;73.53;100407.84;123505;1286;5464929;-66
2023/04/07 07:12:18;;;;;;;27.90;17.80;;;;;;;3.87;73.66;100405.55;125985;1301;115207;-67
2023/04/07 07:15:52;;;;;;;;;;;;;;;3.93;73.57;100412.13;125425;1325;114869;-70
2023/04/07 07:24:19;;;;;;;26.90;18.10;;;;;;;4.03;73.47;100412.11;125671;1304;636768;-67
2023/04/07 07:28:21;;;;;;;20.20;15.40;;;;;;;4.08;73.53;100411.30;126939;1293;128062;-68
2023/04/07 07:32:21;;;;;;;24.00;16.80;;;;;;;4.11;73.34;100416.55;126510;1293;115368;-68
2023/04/07 07:36:23;;;;;;;18.90;15.30;;;;;;;4.17;73.29;100419.77;121864;1320;5433269;-68
2023/04/07 07:44:27;;;;;;;21.60;15.80;;;;;;;4.21;72.84;100429.58;125928;1295;636484;-66
2023/04/07 07:48:32;;;;;;;19.60;15.00;;;;;;;4.15;72.99;100438.36;127605;1281;128485;-66
2023/04/07 07:56:39;;;;;;;22.30;16.10;;;;;;;4.19;73.00;100444.11;125061;1299;5452320;-68
2023/04/07 08:00:23;;;;;;;28.70;14.80;;;;;;;4.19;72.95;100451.18;125040;1310;114889;-69
2023/04/07 08:04:25;;;;;;;27.40;15.20;;;;;;;4.19;72.88;100445.71;124259;1317;129489;-68
2023/04/07 08:17:04;;;;;;;;;;;;;;;;;;;;;
2023/04/07 08:21:09;;;;;;;21.80;14.00;;;;;;;4.28;73.01;100436.52;126959;1294;115482;-71
2023/04/07 08:25:10;;;;;;;19.00;13.60;;;;;;;4.36;73.04;100434.05;122350;1296;5572359;-70
2023/04/07 08:29:34;;;;;;;22.10;14.70;;;;;;;4.50;73.52;100436.20;125620;1305;114891;-70
2023/04/07 08:33:18;;;;;;;21.50;15.20;;;;;;;4.64;73.27;100435.73;125492;1305;115034;-71
2023/04/07 08:37:22;;;;;;;18.20;13.70;;;;;;;4.75;73.06;100419.18;124779;1312;114817;-70
2023/04/07 08:50:07;;;;;;;;;;;;;;;;;;;;;
2023/04/07 08:54:44;;;;;;;20.70;15.60;;;;;;;5.36;72.51;100421.39;125727;1304;638479;-70
2023/04/07 08:58:46;;;;;;;18.60;13.30;;;;;;;5.42;72.33;100428.33;128618;1276;128804;-71
2023/04/07 09:06:52;;;;;;;21.30;14.00;;;;;;;5.51;72.24;100425.45;124025;1280;5480330;-69
2023/04/07 09:10:53;;;;;;;17.20;13.30;;;;;;;5.48;71.87;100425.32;126916;1308;115053;-71
2023/04/07 09:23:36;;;;;;;20.80;14.80;;;;;;;5.51;71.55;100425.09;126209;1292;639769;-69
2023/04/07 09:27:52;;;;;;;20.40;13.90;;;;;;;5.51;71.86;100423.15;128646;1277;128858;-67
2023/04/07 09:31:56;;;;;;;19.60;13.80;;;;;;;5.58;71.95;100420.98;128657;1278;115332;-66
2023/04/07 09:40:02;;;;;;;21.30;14.10;;;;;;;5.62;71.64;100421.23;126223;1299;114992;-68
2023/04/07 09:44:04;;;;;;;18.60;14.20;;;;;;;5.63;71.73;100417.13;125706;1305;114916;-71
2023/04/07 09:52:33;;;;;;;20.10;14.50;;;;;;;5.74;71.84;100419.86;125565;1304;636859;-71
2023/04/07 09:56:36;;;;;;;18.80;13.30;;;;;;;5.75;71.68;100422.50;127555;1288;128786;-67
2023/04/07 10:00:38;;;;;;;;;;;;;;;;;;;;;
2023/04/07 10:08:42;;;;;;;19.60;13.80;;;;;;;5.79;71.74;100416.33;125628;1315;115060;-67
2023/04/07 10:17:20;;;;;;;21.00;14.90;;;;;;;5.85;71.23;100409.98;125666;1299;639952;-69
2023/04/07 10:21:24;;;;;;;23.70;14.20;;;;;;;5.88;71.74;100413.25;128012;1284;128735;-71
2023/04/07 10:25:36;;;;;;;20.20;14.40;;;;;;;5.93;71.75;100408.34;128255;1282;115003;-71
2023/04/07 10:29:37;;;;;;;;;;;;;;;;;;;;;
2023/04/07 10:33:42;;;;;;;20.40;13.80;;;;;;;5.97;71.61;100407.16;126929;1293;114829;-69
2023/04/07 10:37:48;;;;;;;20.90;15.30;;;;;;;6.00;71.60;100402.50;125790;1298;114929;-61
2023/04/07 10:41:47;;;;;;;22.80;14.00;;;;;;;6.03;71.73;100403.29;125251;1305;116271;-64
2023/04/07 10:50:09;;;;;;;22.20;15.60;;;;;;;6.23;71.90;100401.83;126186;1297;636009;-61
2023/04/07 10:54:15;;;;;;;24.90;15.40;;;;;;;6.27;71.66;100406.52;128253;1294;127931;-62
2023/04/07 10:58:16;;;;;;;25.30;16.90;;;;;;;6.27;71.48;100404.91;127648;1284;115329;-61
2023/04/07 11:02:18;;;;;;;20.20;15.10;;;;;;;6.28;71.65;100406.67;122697;1290;5455002;-61
2023/04/07 11:06:20;;;;;;;20.70;14.60;;;;;;;6.30;71.62;100409.27;125124;1324;114948;-62
2023/04/07 11:14:45;;;;;;;33.30;21.30;;;;;;;6.32;71.42;100410.77;125886;1297;635752;-62
2023/04/07 11:18:49;;;;;;;25.40;16.70;;;;;;;6.33;71.75;100413.24;127860;1280;128898;-61
2023/04/07 11:22:54;;;;;;;25.90;16.20;;;;;;;6.37;71.85;100418.43;127926;1280;115447;-60
2023/04/07 11:27:00;;;;;;;23.10;17.00;;;;;;;6.32;71.45;100415.94;122905;1289;5423190;-61
2023/04/07 11:31:04;;;;;;;23.80;16.80;;;;;;;6.33;71.53;100409.52;125973;1295;114811;-63
2023/04/07 11:35:15;;;;;;;24.30;17.00;;;;;;;6.39;71.62;100408.09;125414;1301;114980;-62
2023/04/07 11:39:17;;;;;;;30.20;18.30;;;;;;;6.46;71.84;100404.35;125012;1323;128752;-63
2023/04/07 11:47:34;;;;;;;21.90;16.70;;;;;;;6.61;71.83;100401.56;123489;1319;114915;-61
2023/04/07 11:56:21;;;;;;;20.20;15.00;;;;;;;6.77;71.59;100396.44;125615;1309;638581;-60
2023/04/07 12:00:26;;;;;;;23.50;16.30;;;;;;;6.83;71.52;100396.23;128718;1275;129064;-61
2023/04/07 12:04:39;;;;;;;25.70;16.30;;;;;;;6.86;71.11;100392.42;127764;1284;115302;-60
2023/04/07 12:08:34;;;;;;;22.70;15.10;;;;;;;6.92;71.49;100391.34;122652;1289;5417294;-62
2023/04/07 12:12:36;;;;;;;21.60;15.50;;;;;;;6.98;71.29;100387.22;125244;1319;115064;-67
2023/04/07 12:20:53;;;;;;;23.60;16.50;;;;;;;7.12;70.81;100384.27;125225;1299;637881;-70
2023/04/07 12:24:20;;;;;;;24.20;17.50;;;;;;;7.11;70.90;100384.31;128624;1280;127883;-67
2023/04/07 12:28:06;;;;;;;22.70;15.80;;;;;;;7.10;70.49;100384.88;127886;1281;115210;-68
2023/04/07 12:31:55;;;;;;;22.40;16.10;;;;;;;7.06;70.58;100381.64;128533;1280;115239;-69
2023/04/07 12:35:26;;;;;;;;;;;;;;;;;;;;;
2023/04/07 12:38:53;;;;;;;29.10;18.50;;;;;;;6.85;70.30;100385.35;128951;1273;114759;-72
2023/04/07 12:42:49;;;;;;;25.60;18.10;;;;;;;6.84;70.66;100383.44;128574;1289;114868;-72
2023/04/07 12:46:31;;;;;;;24.80;17.40;;;;;;;6.86;70.99;100381.95;128052;1283;128818;-61
2023/04/07 12:50:35;;;;;;;23.50;17.40;;;;;;;6.84;70.71;100376.31;127883;1277;115246;-67
2023/04/07 12:54:31;;;;;;;22.50;16.80;;;;;;;6.82;70.78;100372.49;126928;1291;115006;-71
2023/04/07 12:58:16;;;;;;;26.00;18.00;;;;;;;6.85;70.80;100369.55;126306;1298;114843;-64
2023/04/07 13:06:21;;;;;;;18.70;15.10;;;;;;;6.86;70.52;100371.84;126131;1295;127943;-67
2023/04/07 13:14:32;;;;;;;;;;;;;;;;;;;;;
2023/04/07 13:19:08;;;;;;;25.50;17.50;;;;;;;6.89;70.85;100368.55;125484;1304;636814;-65
2023/04/07 13:22:59;;;;;;;29.80;19.40;;;;;;;6.84;70.59;100369.41;128465;1294;129861;-64
2023/04/07 13:27:03;;;;;;;35.70;20.30;;;;;;;6.78;70.21;100367.85;127150;1291;115452;-72
2023/04/07 13:31:05;;;;;;;23.60;16.70;;;;;;;6.66;70.55;100367.33;122423;1312;5419063;-72
2023/04/07 13:44:01;;;;;;;26.40;17.90;;;;;;;6.34;70.92;100371.51;128477;1279;128803;-74
2023/04/07 13:48:04;;;;;;;22.30;17.70;;;;;;;6.24;70.95;100371.46;127876;1289;115875;-74
2023/04/07 13:52:07;;;;;;;;;;;;;;;;;;;;;
2023/04/07 14:00:21;;;;;;;22.30;15.40;;;;;;;6.11;71.51;100373.64;125334;1317;114942;-66
2023/04/07 14:04:23;;;;;;;;;;;;;;;;;;;;;
2023/04/07 14:08:21;;;;;;;;;;;;;;;;;;;;;
2023/04/07 14:12:40;;;;;;;31.80;20.70;;;;;;;6.09;72.34;100367.48;126066;1308;636031;-73
2023/04/07 14:16:44;;;;;;;28.50;19.40;;;;;;;6.13;72.43;100368.95;128910;1272;128509;-71
2023/04/07 14:20:46;;;;;;;26.60;18.30;;;;;;;6.11;72.44;100369.73;127871;1281;115198;-68
2023/04/07 14:24:54;;;;;;;22.80;16.90;;;;;;;6.10;72.55;100370.83;122769;1293;5467611;-75
2023/04/07 14:32:57;;;;;;;;;;;;;;;;;;;;;
2023/04/07 14:37:00;;;;;;;25.60;17.40;;;;;;;6.06;73.13;100370.94;128314;1278;128805;-67
2023/04/07 14:45:34;;;;;;;;;;;;;;;;;;;;;
2023/04/07 14:52:34;;;;;;;28.80;19.80;;;;;;;6.11;73.73;100370.98;126321;1294;116626;-70
2023/04/07 14:57:01;;;;;;;30.60;20.00;;;;;;;6.12;73.95;100371.67;126201;1295;114965;-69
2023/04/07 15:00:32;;;;;;;31.80;21.00;;;;;;;6.14;73.97;100372.30;121479;1302;114984;-76
2023/04/07 15:09:11;;;;;;;24.40;17.20;;;;;;;6.19;74.17;100377.85;125300;1305;638266;-70
2023/04/07 15:13:14;;;;;;;26.50;17.60;;;;;;;6.19;74.21;100378.73;128079;1283;128932;-73
2023/04/07 15:17:16;;;;;;;27.60;18.10;;;;;;;6.18;74.24;100383.20;126501;1292;114961;-71
2023/04/07 15:21:17;;;;;;;28.80;17.70;;;;;;;6.15;74.20;100384.52;122041;1304;5403376;-74
2023/04/07 15:25:10;;;;;;;;;;;;;;;;;;;;;
2023/04/07 15:29:44;;;;;;;52.40;24.40;;;;;;;6.13;74.73;100386.15;125565;1298;638434;-74
2023/04/07 15:33:56;;;;;;;40.50;21.20;;;;;;;6.09;74.61;100385.39;127298;1285;129539;-74
2023/04/07 15:37:46;;;;;;;47.60;24.00;;;;;;;6.06;74.59;100388.32;126119;1296;115778;-70
2023/04/07 15:41:46;;;;;;;39.60;22.30;;;;;;;6.05;74.93;100389.58;121769;1299;5432098;-71
2023/04/07 15:45:46;;;;;;;;;;;;;;;;;;;;;
2023/04/07 15:53:42;;;;;;;24.10;16.50;;;;;;;6.04;75.29;100380.05;126008;1294;636302;-75
2023/04/07 15:57:46;;;;;;;28.50;19.40;;;;;;;6.03;75.47;100375.99;128420;1279;128988;-79
2023/04/07 16:01:48;;;;;;;31.70;20.40;;;;;;;6.03;75.47;100375.64;128235;1281;115312;-76
2023/04/07 16:05:42;;;;;;;26.60;18.00;;;;;;;6.04;75.64;100369.95;123368;1289;5416119;-82
2023/04/07 16:09:05;;;;;;;25.20;16.20;;;;;;;6.04;75.83;100361.79;126233;1299;114877;-82
2023/04/07 16:13:22;;;;;;;26.70;19.90;;;;;;;6.03;75.80;100363.77;127703;1286;115128;-86
2023/04/07 16:17:23;;;;;;;30.30;21.40;;;;;;;6.04;75.78;100360.73;126453;1297;114958;-83
2023/04/07 16:26:00;;;;;;;35.20;23.10;;;;;;;6.08;76.02;100358.84;125441;1304;637323;-84
2023/04/07 16:30:03;;;;;;;28.50;21.50;;;;;;;6.05;76.08;100364.57;127553;1281;129943;-77
2023/04/07 16:38:34;;;;;;;25.00;17.70;;;;;;;6.01;76.23;100366.11;125598;1295;638572;-70
2023/04/07 16:42:37;;;;;;;27.10;18.40;;;;;;;5.97;76.24;100367.28;129432;1270;128940;-86
2023/04/07 16:46:39;;;;;;;28.30;19.00;;;;;;;5.94;76.44;100369.84;128832;1276;115298;-85
2023/04/07 16:58:43;;;;;;;18.40;14.70;;;;;;;5.85;76.48;100379.66;126425;1298;114945;-83
2023/04/07 17:07:10;;;;;;;35.10;22.60;;;;;;;5.86;76.71;100387.45;125884;1301;638529;-78
2023/04/07 17:11:13;;;;;;;27.30;18.90;;;;;;;5.84;76.77;100387.15;128607;1274;127671;-86
2023/04/07 17:19:27;;;;;;;21.20;13.90;;;;;;;5.80;77.06;100394.89;123686;1290;5415269;-86
2023/04/07 17:23:50;;;;;;;17.60;12.60;;;;;;;5.76;76.90;100395.86;125925;1318;114839;-86
2023/04/07 17:27:34;;;;;;;14.60;10.80;;;;;;;5.72;76.92;100399.88;125144;1324;116485;-87
2023/04/07 17:36:02;;;;;;;;;;;;;;;;;;;;;
2023/04/07 17:40:07;;;;;;;23.60;15.50;;;;;;;5.66;77.33;100406.98;128204;1282;127860;-75
2023/04/07 17:44:09;;;;;;;28.10;18.40;;;;;;;5.64;77.53;100408.25;126455;1293;115259;-80
2023/04/07 17:56:45;;;;;;;28.80;18.10;;;;;;;5.63;77.70;100415.73;125739;1304;637741;-84
2023/04/07 18:04:51;;;;;;;21.20;15.70;;;;;;;5.61;77.81;100421.81;127912;1281;115197;-83
2023/04/07 18:08:55;;;;;;;25.50;17.10;;;;;;;5.59;77.92;100423.82;122568;1299;5413135;-82
2023/04/07 18:12:57;;;;;;;19.80;14.90;;;;;;;5.58;78.10;100426.31;124639;1332;115020;-81
2023/04/07 18:21:34;;;;;;;32.20;20.50;;;;;;;5.60;78.28;100426.96;125701;1305;641368;-71
2023/04/07 18:29:38;;;;;;;25.50;18.40;;;;;;;5.55;78.30;100429.93;127039;1290;115444;-81
2023/04/07 18:33:39;;;;;;;26.20;19.20;;;;;;;5.53;78.15;100434.95;122028;1301;5418322;-72
2023/04/07 18:42:34;;;;;;;26.50;20.10;;;;;;;5.56;78.38;100437.54;125733;1299;650050;-76
2023/04/07 18:46:36;;;;;;;25.10;17.20;;;;;;;5.57;78.37;100436.63;127231;1287;127036;-76
2023/04/07 18:50:38;;;;;;;23.60;17.60;;;;;;;5.55;78.62;100440.02;126875;1290;115203;-75
2023/04/07 18:54:41;;;;;;;24.10;17.60;;;;;;;5.48;78.50;100438.43;122281;1298;5468105;-71
2023/04/07 18:59:07;;;;;;;20.50;16.10;;;;;;;5.35;78.72;100444.80;125714;1304;114962;-69
2023/04/07 19:02:43;;;;;;;28.00;18.30;;;;;;;5.36;78.94;100441.23;125341;1308;114852;-70
2023/04/07 19:06:44;;;;;;;38.30;23.40;;;;;;;5.37;79.09;100440.32;124959;1312;114842;-77
2023/04/07 19:23:11;;;;;;;26.30;18.60;;;;;;;5.47;79.27;100441.65;127667;1280;116451;-76
2023/04/07 19:27:16;;;;;;;24.50;17.80;;;;;;;5.49;79.43;100444.61;123836;1286;5737226;-70
2023/04/07 19:31:18;;;;;;;24.60;17.60;;;;;;;5.49;79.26;100443.91;126745;1295;115018;-72
2023/04/07 19:39:57;;;;;;;21.70;15.90;;;;;;;5.51;79.31;100441.55;125571;1307;637838;-66
2023/04/07 19:44:02;;;;;;;22.20;15.60;;;;;;;5.51;79.47;100437.48;128168;1284;129723;-76
2023/04/07 19:48:06;;;;;;;21.30;15.10;;;;;;;5.52;79.58;100440.65;128285;1282;115264;-67
2023/04/07 19:52:10;;;;;;;21.60;16.20;;;;;;;5.53;79.61;100442.20;123744;1280;5457487;-66
2023/04/07 20:00:14;;;;;;;22.40;15.20;;;;;;;5.56;79.69;100441.59;126835;1304;114974;-68
2023/04/07 20:04:15;;;;;;;24.40;16.40;;;;;;;5.57;79.77;100430.05;126325;1298;130030;-67
2023/04/07 20:12:18;;;;;;;22.90;16.40;;;;;;;5.59;79.70;100439.40;125950;1310;114978;-74
2023/04/07 20:16:17;;;;;;;;;;;;;;;;;;;;;
2023/04/07 20:20:13;;;;;;;20.10;15.10;;;;;;;5.59;79.67;100445.08;125467;1307;114853;-77
2023/04/07 20:24:14;;;;;;;20.10;15.60;;;;;;;5.58;79.58;100445.44;125448;1307;129876;-75
2023/04/07 20:28:09;;;;;;;20.70;16.30;;;;;;;5.57;79.68;100448.14;125305;1308;115355;-72
2023/04/07 20:32:08;;;;;;;21.70;16.60;;;;;;;5.55;79.80;100448.73;125806;1298;114902;-75
2023/04/07 20:36:10;;;;;;;25.80;17.50;;;;;;;5.55;79.92;100448.73;125976;1319;114964;-76
2023/04/07 20:40:08;;;;;;;;;;;;;;;;;;;;;
2023/04/07 20:43:43;;;;;;;20.90;15.80;;;;;;;5.54;80.05;100446.78;125473;1321;127663;-70
2023/04/07 20:56:28;;;;;;;22.80;17.50;;;;;;;5.54;80.02;100435.10;125532;1302;639066;-70
2023/04/07 21:00:27;;;;;;;22.30;17.10;;;;;;;5.53;80.10;100437.79;128418;1280;128920;-74
2023/04/07 21:04:31;;;;;;;19.90;15.70;;;;;;;5.53;80.15;100441.69;128141;1282;115360;-71
2023/04/07 21:08:33;;;;;;;25.70;18.40;;;;;;;5.53;80.27;100450.19;123518;1291;5406092;-67
2023/04/07 21:12:36;;;;;;;22.60;17.40;;;;;;;5.55;80.27;100452.80;126174;1298;115253;-73
2023/04/07 21:16:38;;;;;;;24.90;17.10;;;;;;;5.55;80.26;100452.61;125553;1315;114897;-77
2023/04/07 21:20:36;;;;;;;;;;;;;;;;;;;;;
2023/04/07 21:24:38;;;;;;;;;;;;;;;;;;;;;
2023/04/07 21:29:11;;;;;;;28.80;20.60;;;;;;;5.55;80.39;100458.27;126221;1301;638241;-71
2023/04/07 21:33:07;;;;;;;29.80;21.10;;;;;;;5.54;80.34;100454.06;128313;1289;128020;-71
2023/04/07 21:37:09;;;;;;;29.20;21.10;;;;;;;5.55;80.45;100453.84;127796;1282;114902;-76
2023/04/07 21:41:06;;;;;;;;;;;;;;;;;;;;;
2023/04/07 21:45:23;;;;;;;24.40;18.40;;;;;;;5.57;80.66;100448.13;126489;1295;114960;-68
2023/04/07 21:53:25;;;;;;;24.10;16.00;;;;;;;5.60;80.73;100440.79;125433;1318;115249;-67
2023/04/07 22:01:37;;;;;;;25.80;18.50;;;;;;;5.68;80.57;100443.59;125786;1300;637326;-64
2023/04/07 22:05:39;;;;;;;25.80;19.10;;;;;;;5.69;80.66;100447.66;128715;1273;128829;-69
2023/04/07 22:09:39;;;;;;;;;;;;;;;;;;;;;
2023/04/07 22:17:26;;;;;;;30.80;21.70;;;;;;;5.73;80.74;100449.98;127260;1290;114896;-75
2023/04/07 22:21:31;;;;;;;29.40;20.00;;;;;;;5.74;80.64;100450.67;126785;1303;115005;-69
2023/04/07 22:25:32;;;;;;;27.20;18.60;;;;;;;5.76;80.66;100450.83;126441;1296;115040;-68
2023/04/07 22:29:34;;;;;;;27.40;18.50;;;;;;;5.77;80.72;100449.02;125921;1312;129878;-64
2023/04/07 22:33:36;;;;;;;27.30;21.10;;;;;;;5.77;80.82;100441.56;125432;1318;115275;-74
2023/04/07 22:36:47;;;;;;;26.20;18.90;;;;;;;5.78;80.81;100447.92;124803;1314;115035;-72
2023/04/07 22:57:17;;;;;;;27.70;19.90;;;;;;;5.81;80.70;100472.10;126972;1290;128620;-71
2023/04/07 23:01:18;;;;;;;30.00;20.50;;;;;;;5.82;80.71;100472.46;126258;1294;115308;-64
2023/04/07 23:05:18;;;;;;;30.50;20.80;;;;;;;5.82;80.88;100474.58;121840;1303;5482315;-64
2023/04/07 23:09:18;;;;;;;;;;;;;;;;;;;;;
2023/04/07 23:17:41;;;;;;;;;;;;;;;;;;;;;
2023/04/07 23:25:58;;;;;;;30.90;20.80;;;;;;;5.82;80.99;100491.42;126713;1290;115290;-64
2023/04/07 23:29:59;;;;;;;22.80;16.20;;;;;;;5.80;80.83;100487.05;122134;1299;5508684;-71
2023/04/07 23:46:40;;;;;;;27.40;20.30;;;;;;;5.83;81.07;100491.76;127924;1284;115288;-73
2023/04/07 23:50:40;;;;;;;;;;;;;;;;;;;;;
2023/04/07 23:54:43;;;;;;;31.70;20.10;;;;;;;5.84;81.17;100497.77;125693;1304;114939;-75
2023/04/07 23:58:42;;;;;;;;;;;;;;;;;;;;;
